Time;durP1;ratioP1;P1;durP2;ratioP2;P2;SDS_P1;SDS_P2;PMS_P1;PMS_P2;Temp;Humidity;BMP_temperature;BMP_pressure;BME280_temperature;BME280_humidity;BME280_pressure;Samples;Min_cycle;Max_cycle;Signal;HPM_P1;HPM_P2
2022/02/27 00:01:56;;;;;;;12.38;4.75;;;;;;;;;;5087357;28;20398;-50
2022/02/27 00:04:22;;;;;;;9.50;4.88;;;;;;;;;;5080935;28;20358;-49
2022/02/27 00:06:48;;;;;;;10.65;4.43;;;;;;;;;;5084044;28;20031;-49
2022/02/27 00:09:14;;;;;;;14.13;5.15;;;;;;;;;;5082945;28;20032;-49
2022/02/27 00:11:40;;;;;;;14.10;5.13;;;;;;;;;;5091323;28;20024;-48
2022/02/27 00:14:06;;;;;;;13.20;4.70;;;;;;;;;;5082384;28;20016;-51
2022/02/27 00:16:33;;;;;;;10.80;4.97;;;;;;;;;;5089940;28;20028;-48
2022/02/27 00:18:59;;;;;;;10.88;5.38;;;;;;;;;;5090302;28;20126;-49
2022/02/27 00:21:25;;;;;;;9.80;4.43;;;;;;;;;;5089549;28;20034;-48
2022/02/27 00:23:51;;;;;;;14.10;5.05;;;;;;;;;;5091913;28;20091;-49
2022/02/27 00:26:17;;;;;;;8.30;4.72;;;;;;;;;;5080063;28;20463;-49
2022/02/27 00:28:43;;;;;;;15.23;5.40;;;;;;;;;;5090826;28;20078;-49
2022/02/27 00:31:09;;;;;;;12.23;5.55;;;;;;;;;;5081362;28;20109;-48
2022/02/27 00:33:35;;;;;;;11.80;4.70;;;;;;;;;;5086015;28;20063;-48
2022/02/27 00:36:01;;;;;;;10.43;4.88;;;;;;;;;;5086600;28;20556;-49
2022/02/27 00:38:28;;;;;;;10.57;5.07;;;;;;;;;;5088282;28;20020;-50
2022/02/27 00:40:53;;;;;;;7.60;4.43;;;;;;;;;;5089243;28;20103;-49
2022/02/27 00:43:19;;;;;;;14.95;6.00;;;;;;;;;;5089052;28;20027;-48
2022/02/27 00:45:45;;;;;;;12.13;5.25;;;;;;;;;;5085877;28;20032;-49
2022/02/27 00:48:11;;;;;;;8.35;4.75;;;;;;;;;;5087383;28;20354;-49
2022/02/27 00:50:37;;;;;;;12.57;4.65;;;;;;;;;;5087612;28;20039;-49
2022/02/27 00:53:06;;;;;;;12.93;5.35;;;;;;;;;;5089015;28;20097;-49
2022/02/27 00:55:32;;;;;;;11.63;4.85;;;;;;;;;;5086868;28;20050;-48
2022/02/27 00:57:58;;;;;;;10.57;6.20;;;;;;;;;;5087572;28;20460;-48
2022/02/27 01:00:24;;;;;;;10.63;5.50;;;;;;;;;;5089046;28;20372;-51
2022/02/27 01:02:50;;;;;;;8.82;4.72;;;;;;;;;;5086711;28;20193;-50
2022/02/27 01:05:16;;;;;;;9.52;5.43;;;;;;;;;;5095236;28;20047;-50
2022/02/27 01:07:41;;;;;;;14.75;5.43;;;;;;;;;;5082420;28;20036;-49
2022/02/27 01:10:08;;;;;;;11.50;5.22;;;;;;;;;;5094171;28;20512;-49
2022/02/27 01:12:34;;;;;;;12.80;5.85;;;;;;;;;;5089882;28;20028;-48
2022/02/27 01:15:00;;;;;;;13.98;5.97;;;;;;;;;;5093713;28;20499;-49
2022/02/27 01:17:26;;;;;;;9.85;5.18;;;;;;;;;;5091485;28;20022;-48
2022/02/27 01:19:52;;;;;;;11.30;4.90;;;;;;;;;;5093923;28;20103;-48
2022/02/27 01:22:18;;;;;;;12.05;5.75;;;;;;;;;;5082644;28;20103;-49
2022/02/27 01:24:44;;;;;;;10.10;4.43;;;;;;;;;;5083614;28;20035;-48
2022/02/27 01:27:10;;;;;;;12.57;5.63;;;;;;;;;;5087833;28;20078;-48
2022/02/27 01:29:36;;;;;;;8.63;5.20;;;;;;;;;;5092525;28;20020;-49
2022/02/27 01:32:02;;;;;;;8.75;5.20;;;;;;;;;;5085962;28;20039;-48
2022/02/27 01:34:28;;;;;;;11.73;4.93;;;;;;;;;;5079230;28;20488;-48
2022/02/27 01:36:56;;;;;;;11.05;5.22;;;;;;;;;;5085049;28;20503;-50
2022/02/27 01:39:22;;;;;;;12.23;4.63;;;;;;;;;;5088887;28;20039;-49
2022/02/27 01:41:48;;;;;;;12.07;5.40;;;;;;;;;;5084962;28;20028;-48
2022/02/27 01:44:14;;;;;;;11.95;4.93;;;;;;;;;;5087010;28;20031;-48
2022/02/27 01:46:59;;;;;;;11.07;5.50;;;;;;;;;;5090712;28;20031;-48
2022/02/27 01:49:25;;;;;;;10.65;5.38;;;;;;;;;;5074257;28;20025;-49
2022/02/27 01:51:51;;;;;;;9.75;4.88;;;;;;;;;;5085233;28;20036;-48
2022/02/27 01:54:17;;;;;;;15.60;5.93;;;;;;;;;;5094483;28;20101;-48
2022/02/27 01:56:43;;;;;;;10.70;4.70;;;;;;;;;;5086661;28;20135;-48
2022/02/27 01:59:09;;;;;;;7.72;4.68;;;;;;;;;;5090330;28;20024;-48
2022/02/27 02:01:35;;;;;;;11.05;4.97;;;;;;;;;;5082651;28;20031;-48
2022/02/27 02:04:01;;;;;;;10.18;4.65;;;;;;;;;;5087992;28;20028;-47
2022/02/27 02:06:27;;;;;;;15.48;4.50;;;;;;;;;;5088670;28;20108;-47
2022/02/27 02:08:53;;;;;;;10.93;4.43;;;;;;;;;;5092823;28;20039;-47
2022/02/27 02:11:19;;;;;;;12.23;4.57;;;;;;;;;;5088186;28;20108;-47
2022/02/27 02:13:45;;;;;;;9.13;4.68;;;;;;;;;;5090122;28;20091;-47
2022/02/27 02:16:11;;;;;;;8.27;4.63;;;;;;;;;;5091750;28;20028;-47
2022/02/27 02:18:40;;;;;;;9.85;5.20;;;;;;;;;;5084972;28;20503;-47
2022/02/27 02:21:09;;;;;;;13.32;5.25;;;;;;;;;;5086126;28;20027;-47
2022/02/27 02:23:35;;;;;;;9.98;4.57;;;;;;;;;;5084200;28;20097;-47
2022/02/27 02:26:03;;;;;;;10.88;4.97;;;;;;;;;;5093630;28;20475;-47
2022/02/27 02:28:29;;;;;;;8.75;4.72;;;;;;;;;;5087686;28;20368;-47
2022/02/27 02:30:55;;;;;;;9.27;4.93;;;;;;;;;;5089780;28;20107;-47
2022/02/27 02:33:33;;;;;;;10.35;5.50;;;;;;;;;;5093721;28;20035;-47
2022/02/27 02:35:59;;;;;;;9.90;4.63;;;;;;;;;;5085297;28;20070;-48
2022/02/27 02:38:26;;;;;;;13.05;4.70;;;;;;;;;;5077047;28;20028;-48
2022/02/27 02:40:52;;;;;;;11.57;4.45;;;;;;;;;;5083780;28;20384;-48
2022/02/27 02:43:19;;;;;;;9.10;5.47;;;;;;;;;;5093101;28;20103;-50
2022/02/27 02:45:45;;;;;;;10.15;5.13;;;;;;;;;;5091568;28;20024;-50
2022/02/27 02:48:11;;;;;;;13.45;5.15;;;;;;;;;;5093513;28;20051;-48
2022/02/27 02:50:37;;;;;;;11.73;4.97;;;;;;;;;;5083935;28;20381;-47
2022/02/27 02:53:03;;;;;;;9.05;4.38;;;;;;;;;;5092041;28;20056;-47
2022/02/27 02:55:29;;;;;;;8.90;4.78;;;;;;;;;;5093182;28;20028;-48
2022/02/27 02:57:54;;;;;;;9.65;4.70;;;;;;;;;;5090978;28;20157;-48
2022/02/27 03:00:20;;;;;;;9.77;5.07;;;;;;;;;;5090187;28;20476;-48
2022/02/27 03:02:47;;;;;;;13.60;5.38;;;;;;;;;;5085374;28;20063;-47
2022/02/27 03:05:13;;;;;;;7.90;4.65;;;;;;;;;;5090717;28;20052;-47
2022/02/27 03:07:40;;;;;;;10.23;5.13;;;;;;;;;;5081408;28;20043;-48
2022/02/27 03:10:07;;;;;;;11.93;5.82;;;;;;;;;;5090746;28;20028;-47
2022/02/27 03:12:33;;;;;;;12.07;5.35;;;;;;;;;;5084446;28;20024;-47
2022/02/27 03:14:59;;;;;;;10.18;6.10;;;;;;;;;;5088147;28;20067;-49
2022/02/27 03:17:25;;;;;;;14.52;6.40;;;;;;;;;;5091196;28;20085;-47
2022/02/27 03:19:51;;;;;;;12.60;5.65;;;;;;;;;;5082129;28;20028;-49
2022/02/27 03:22:17;;;;;;;12.27;6.00;;;;;;;;;;5082804;28;20032;-50
2022/02/27 03:24:43;;;;;;;11.38;5.55;;;;;;;;;;5091869;28;20021;-47
2022/02/27 03:27:09;;;;;;;10.05;4.82;;;;;;;;;;5077964;28;20360;-52
2022/02/27 03:29:35;;;;;;;10.43;6.35;;;;;;;;;;5079516;28;20036;-52
2022/02/27 03:32:01;;;;;;;11.50;5.20;;;;;;;;;;5080595;28;20031;-48
2022/02/27 03:34:27;;;;;;;9.90;5.00;;;;;;;;;;5091389;28;20036;-48
2022/02/27 03:36:53;;;;;;;8.88;4.57;;;;;;;;;;5083639;28;20043;-48
2022/02/27 03:39:19;;;;;;;8.82;4.82;;;;;;;;;;5088130;28;20030;-47
2022/02/27 03:41:45;;;;;;;10.02;4.95;;;;;;;;;;5079969;28;20016;-47
2022/02/27 03:44:11;;;;;;;13.27;4.63;;;;;;;;;;5091202;28;20032;-48
2022/02/27 03:46:37;;;;;;;10.02;4.70;;;;;;;;;;5084748;28;20036;-48
2022/02/27 03:49:05;;;;;;;10.18;5.35;;;;;;;;;;5091718;28;20426;-47
2022/02/27 03:51:34;;;;;;;14.40;5.07;;;;;;;;;;5089849;28;20131;-48
2022/02/27 03:54:01;;;;;;;12.15;5.15;;;;;;;;;;5088519;28;20056;-47
2022/02/27 03:56:27;;;;;;;11.10;4.47;;;;;;;;;;5082361;28;20020;-49
2022/02/27 03:58:53;;;;;;;11.20;4.65;;;;;;;;;;5080199;28;20051;-48
2022/02/27 04:01:19;;;;;;;10.65;5.20;;;;;;;;;;5085699;28;20101;-47
2022/02/27 04:03:45;;;;;;;13.35;5.80;;;;;;;;;;5089718;28;20034;-47
2022/02/27 04:06:12;;;;;;;12.13;5.57;;;;;;;;;;5079962;28;20033;-51
2022/02/27 04:08:38;;;;;;;14.77;5.50;;;;;;;;;;5077735;28;20089;-48
2022/02/27 04:11:04;;;;;;;8.23;4.78;;;;;;;;;;5078336;28;20025;-48
2022/02/27 04:13:30;;;;;;;8.48;5.57;;;;;;;;;;5088426;28;20371;-52
2022/02/27 04:15:56;;;;;;;14.57;5.60;;;;;;;;;;5085789;28;20028;-51
2022/02/27 04:18:22;;;;;;;10.30;5.55;;;;;;;;;;5089615;28;20016;-48
2022/02/27 04:20:48;;;;;;;13.90;6.53;;;;;;;;;;5078222;28;20017;-49
2022/02/27 04:23:14;;;;;;;9.07;5.55;;;;;;;;;;5075710;28;20036;-49
2022/02/27 04:25:40;;;;;;;11.48;6.32;;;;;;;;;;5087026;28;20040;-49
2022/02/27 04:28:06;;;;;;;9.65;5.22;;;;;;;;;;5088818;28;20020;-47
2022/02/27 04:30:32;;;;;;;7.53;5.32;;;;;;;;;;5081466;28;20417;-48
2022/02/27 04:32:58;;;;;;;11.55;5.85;;;;;;;;;;5085891;28;20470;-47
2022/02/27 04:35:24;;;;;;;12.75;5.57;;;;;;;;;;5081267;28;20024;-47
2022/02/27 04:37:50;;;;;;;13.43;5.40;;;;;;;;;;5083835;28;20028;-49
2022/02/27 04:40:16;;;;;;;12.32;5.78;;;;;;;;;;5095320;28;20024;-47
2022/02/27 04:42:42;;;;;;;10.63;5.57;;;;;;;;;;5088801;28;20024;-47
2022/02/27 04:45:09;;;;;;;9.15;5.45;;;;;;;;;;5095571;28;20190;-47
2022/02/27 04:47:35;;;;;;;12.05;5.28;;;;;;;;;;5090132;28;20061;-53
2022/02/27 04:50:01;;;;;;;14.55;5.75;;;;;;;;;;5093976;28;20452;-51
2022/02/27 04:52:27;;;;;;;10.63;5.68;;;;;;;;;;5079650;28;20120;-53
2022/02/27 04:54:52;;;;;;;17.45;6.03;;;;;;;;;;5087154;28;20031;-52
2022/02/27 04:57:18;;;;;;;10.38;5.32;;;;;;;;;;5086146;28;20158;-48
2022/02/27 04:59:44;;;;;;;7.55;5.00;;;;;;;;;;5087518;28;20032;-48
2022/02/27 05:02:10;;;;;;;9.55;4.80;;;;;;;;;;5079528;28;20043;-49
2022/02/27 05:04:36;;;;;;;11.43;5.75;;;;;;;;;;5075495;28;20041;-49
2022/02/27 05:07:05;;;;;;;10.98;5.38;;;;;;;;;;5078767;28;20029;-47
2022/02/27 05:09:31;;;;;;;11.35;6.18;;;;;;;;;;5081021;28;20054;-47
2022/02/27 05:11:58;;;;;;;16.75;6.68;;;;;;;;;;5077464;28;20038;-52
2022/02/27 05:14:24;;;;;;;13.90;5.70;;;;;;;;;;5072350;28;20112;-49
2022/02/27 05:16:50;;;;;;;14.05;6.43;;;;;;;;;;5078974;28;20103;-47
2022/02/27 05:19:16;;;;;;;11.52;6.35;;;;;;;;;;5085855;28;20042;-48
2022/02/27 05:21:42;;;;;;;11.02;6.28;;;;;;;;;;5088387;28;20052;-50
2022/02/27 05:24:08;;;;;;;12.25;6.05;;;;;;;;;;5089350;28;20116;-48
2022/02/27 05:26:34;;;;;;;11.73;5.80;;;;;;;;;;5082132;28;20445;-47
2022/02/27 05:29:00;;;;;;;9.88;5.97;;;;;;;;;;5075700;28;20032;-48
2022/02/27 05:31:26;;;;;;;12.02;5.97;;;;;;;;;;5076386;28;20101;-48
2022/02/27 05:33:52;;;;;;;14.25;6.32;;;;;;;;;;5090738;28;20388;-49
2022/02/27 05:36:18;;;;;;;14.38;5.60;;;;;;;;;;5086235;28;20502;-50
2022/02/27 05:38:44;;;;;;;17.25;5.80;;;;;;;;;;5085523;28;20119;-50
2022/02/27 05:41:10;;;;;;;13.90;5.68;;;;;;;;;;5076015;28;20388;-50
2022/02/27 05:43:36;;;;;;;14.98;5.78;;;;;;;;;;5075419;28;20029;-48
2022/02/27 05:46:02;;;;;;;11.70;5.78;;;;;;;;;;5092162;28;20085;-50
2022/02/27 05:48:28;;;;;;;14.93;6.70;;;;;;;;;;5085292;28;20552;-48
2022/02/27 05:50:54;;;;;;;11.45;6.03;;;;;;;;;;5078723;28;20074;-48
2022/02/27 05:53:20;;;;;;;12.35;6.75;;;;;;;;;;5087135;28;20118;-48
2022/02/27 05:55:46;;;;;;;13.30;6.28;;;;;;;;;;5083478;28;20079;-48
2022/02/27 05:58:12;;;;;;;12.68;6.40;;;;;;;;;;5086652;28;20032;-48
2022/02/27 06:00:39;;;;;;;11.77;5.72;;;;;;;;;;5085032;28;20036;-47
2022/02/27 06:03:05;;;;;;;10.98;5.82;;;;;;;;;;5077737;28;20024;-47
2022/02/27 06:05:31;;;;;;;13.07;6.00;;;;;;;;;;5084765;28;20035;-48
2022/02/27 06:07:57;;;;;;;10.55;5.15;;;;;;;;;;5080350;28;20036;-49
2022/02/27 06:10:23;;;;;;;12.38;5.30;;;;;;;;;;5075856;28;20099;-47
2022/02/27 06:12:49;;;;;;;11.60;6.20;;;;;;;;;;5081608;28;20502;-48
2022/02/27 06:15:16;;;;;;;12.25;5.90;;;;;;;;;;5085486;28;20035;-48
2022/02/27 06:17:42;;;;;;;13.05;5.88;;;;;;;;;;5077698;28;20029;-48
2022/02/27 06:20:09;;;;;;;14.50;5.43;;;;;;;;;;5078781;28;20025;-51
2022/02/27 06:22:38;;;;;;;13.82;6.43;;;;;;;;;;5076896;28;20020;-49
2022/02/27 06:25:04;;;;;;;14.32;6.43;;;;;;;;;;5080939;28;20032;-52
2022/02/27 06:27:30;;;;;;;15.35;5.75;;;;;;;;;;5083405;28;20419;-51
2022/02/27 06:29:56;;;;;;;11.27;5.38;;;;;;;;;;5079389;28;20032;-49
2022/02/27 06:32:22;;;;;;;11.75;6.07;;;;;;;;;;5085882;28;20028;-48
2022/02/27 06:34:48;;;;;;;12.65;6.63;;;;;;;;;;5079708;28;20032;-48
2022/02/27 06:37:14;;;;;;;13.95;6.32;;;;;;;;;;5075242;28;20024;-48
2022/02/27 06:39:40;;;;;;;9.88;5.30;;;;;;;;;;5084080;28;20028;-49
2022/02/27 06:42:06;;;;;;;9.10;5.82;;;;;;;;;;5079971;28;20032;-48
2022/02/27 06:44:32;;;;;;;13.95;6.50;;;;;;;;;;5091493;28;20114;-48
2022/02/27 06:46:58;;;;;;;11.13;6.20;;;;;;;;;;5090009;28;20036;-47
2022/02/27 06:49:24;;;;;;;16.00;6.50;;;;;;;;;;5091564;28;20032;-48
2022/02/27 06:51:50;;;;;;;14.88;6.30;;;;;;;;;;5081577;28;20072;-48
2022/02/27 06:54:21;;;;;;;14.95;6.05;;;;;;;;;;5089347;28;20139;-48
2022/02/27 06:56:47;;;;;;;10.13;4.95;;;;;;;;;;5079607;28;20026;-49
2022/02/27 06:59:13;;;;;;;11.20;5.40;;;;;;;;;;5081000;28;20032;-48
2022/02/27 07:01:40;;;;;;;11.80;6.00;;;;;;;;;;5083906;28;20020;-48
2022/02/27 07:04:05;;;;;;;17.02;6.38;;;;;;;;;;5085277;28;20020;-47
2022/02/27 07:06:31;;;;;;;14.85;5.60;;;;;;;;;;5090412;28;20472;-49
2022/02/27 07:08:57;;;;;;;9.40;5.55;;;;;;;;;;5085749;28;20512;-50
2022/02/27 07:11:23;;;;;;;15.32;6.28;;;;;;;;;;5078932;28;20074;-50
2022/02/27 07:13:49;;;;;;;13.57;6.78;;;;;;;;;;5075600;28;20021;-49
2022/02/27 07:16:15;;;;;;;14.02;5.35;;;;;;;;;;5085903;28;20050;-49
2022/02/27 07:18:42;;;;;;;12.73;6.10;;;;;;;;;;5087670;28;20020;-51
2022/02/27 07:21:08;;;;;;;12.07;5.32;;;;;;;;;;5083291;28;20114;-49
2022/02/27 07:23:34;;;;;;;14.07;7.15;;;;;;;;;;5080217;28;20127;-51
2022/02/27 07:26:00;;;;;;;15.00;6.22;;;;;;;;;;5090540;28;20028;-52
2022/02/27 07:28:26;;;;;;;13.60;5.55;;;;;;;;;;5082162;28;20036;-48
2022/02/27 07:30:52;;;;;;;13.02;6.15;;;;;;;;;;5088455;28;20039;-50
2022/02/27 07:33:19;;;;;;;15.23;6.15;;;;;;;;;;5085002;28;20032;-47
2022/02/27 07:35:45;;;;;;;18.35;6.70;;;;;;;;;;5088947;28;20047;-47
2022/02/27 07:38:11;;;;;;;17.17;7.43;;;;;;;;;;5082579;28;20067;-49
2022/02/27 07:40:37;;;;;;;20.50;7.07;;;;;;;;;;5091349;28;20031;-49
2022/02/27 07:43:03;;;;;;;15.02;6.78;;;;;;;;;;5076852;28;20648;-49
2022/02/27 07:45:29;;;;;;;14.18;7.32;;;;;;;;;;5080302;28;20115;-52
2022/02/27 07:47:55;;;;;;;11.98;6.55;;;;;;;;;;5090674;28;20028;-47
2022/02/27 07:50:21;;;;;;;12.43;6.10;;;;;;;;;;5086208;28;20024;-48
2022/02/27 07:52:47;;;;;;;13.98;6.45;;;;;;;;;;5087315;28;20040;-50
2022/02/27 07:55:13;;;;;;;13.95;6.57;;;;;;;;;;5073419;28;20028;-49
2022/02/27 07:57:39;;;;;;;12.10;7.35;;;;;;;;;;5072314;28;20027;-52
2022/02/27 08:00:06;;;;;;;14.90;6.75;;;;;;;;;;5081610;28;20032;-49
2022/02/27 08:02:32;;;;;;;17.10;7.22;;;;;;;;;;5081500;28;20032;-51
2022/02/27 08:04:58;;;;;;;17.08;7.90;;;;;;;;;;5083203;28;20547;-48
2022/02/27 08:07:24;;;;;;;15.30;7.45;;;;;;;;;;5081133;28;20028;-48
2022/02/27 08:09:50;;;;;;;16.15;7.07;;;;;;;;;;5078513;28;20032;-49
2022/02/27 08:12:16;;;;;;;12.07;7.32;;;;;;;;;;5087220;28;20036;-50
2022/02/27 08:14:46;;;;;;;21.65;8.65;;;;;;;;;;5081065;28;20035;-48
2022/02/27 08:17:12;;;;;;;20.50;7.60;;;;;;;;;;5079494;28;20025;-50
2022/02/27 08:19:38;;;;;;;20.63;7.72;;;;;;;;;;5077804;28;20035;-54
2022/02/27 08:22:04;;;;;;;19.35;8.23;;;;;;;;;;5082495;28;20032;-49
2022/02/27 08:24:30;;;;;;;17.52;7.53;;;;;;;;;;5084467;28;20106;-48
2022/02/27 08:26:56;;;;;;;19.52;8.05;;;;;;;;;;5076129;28;20426;-51
2022/02/27 08:29:22;;;;;;;13.23;7.25;;;;;;;;;;5083533;28;20028;-48
2022/02/27 08:31:48;;;;;;;20.33;7.57;;;;;;;;;;5076909;28;20030;-48
2022/02/27 08:34:14;;;;;;;23.83;8.65;;;;;;;;;;5073569;28;20020;-48
2022/02/27 08:36:40;;;;;;;15.65;7.25;;;;;;;;;;5081177;28;20035;-48
2022/02/27 08:39:07;;;;;;;16.17;7.57;;;;;;;;;;5080846;28;20036;-48
2022/02/27 08:41:33;;;;;;;16.65;7.35;;;;;;;;;;5074804;28;20028;-50
2022/02/27 08:43:59;;;;;;;20.60;7.82;;;;;;;;;;5081140;28;20043;-51
2022/02/27 08:46:25;;;;;;;17.02;8.25;;;;;;;;;;5080575;28;20033;-51
2022/02/27 08:48:51;;;;;;;19.52;8.82;;;;;;;;;;5082382;28;20032;-48
2022/02/27 08:51:17;;;;;;;14.73;7.25;;;;;;;;;;5081265;28;20045;-48
2022/02/27 08:53:43;;;;;;;15.50;8.30;;;;;;;;;;5075598;28;20028;-49
2022/02/27 08:56:09;;;;;;;14.77;7.63;;;;;;;;;;5075716;28;20032;-49
2022/02/27 08:58:35;;;;;;;19.85;8.35;;;;;;;;;;5075891;28;20028;-49
2022/02/27 09:01:01;;;;;;;16.27;8.07;;;;;;;;;;5077488;28;20459;-49
2022/02/27 09:03:28;;;;;;;17.10;8.30;;;;;;;;;;5087105;28;20036;-49
2022/02/27 09:05:53;;;;;;;17.17;8.25;;;;;;;;;;5080350;28;20036;-48
2022/02/27 09:08:20;;;;;;;18.20;7.85;;;;;;;;;;5081141;28;20525;-48
2022/02/27 09:10:46;;;;;;;22.67;7.72;;;;;;;;;;5074160;28;24251;-51
2022/02/27 09:13:12;;;;;;;15.75;7.70;;;;;;;;;;5084441;28;20490;-51
2022/02/27 09:15:39;;;;;;;13.43;7.45;;;;;;;;;;5086428;28;20041;-48
2022/02/27 09:18:04;;;;;;;14.57;7.90;;;;;;;;;;5078218;28;20032;-48
2022/02/27 09:20:30;;;;;;;16.23;7.15;;;;;;;;;;5084942;28;20028;-49
2022/02/27 09:22:57;;;;;;;13.95;7.32;;;;;;;;;;5091494;28;20496;-51
2022/02/27 09:25:23;;;;;;;14.45;6.90;;;;;;;;;;5092785;28;20024;-48
2022/02/27 09:27:48;;;;;;;13.88;6.50;;;;;;;;;;5091168;28;20187;-49
2022/02/27 09:30:15;;;;;;;18.35;6.88;;;;;;;;;;5087928;28;20020;-52
2022/02/27 09:32:41;;;;;;;19.63;7.03;;;;;;;;;;5088384;28;20033;-52
2022/02/27 09:35:07;;;;;;;11.95;6.78;;;;;;;;;;5084763;28;20063;-49
2022/02/27 09:37:34;;;;;;;15.65;6.75;;;;;;;;;;5087266;28;20028;-48
2022/02/27 09:40:00;;;;;;;12.88;6.20;;;;;;;;;;5081419;28;20036;-51
2022/02/27 09:42:30;;;;;;;16.35;6.10;;;;;;;;;;5083034;28;20344;-51
2022/02/27 09:44:56;;;;;;;11.95;5.35;;;;;;;;;;5078088;28;20078;-49
2022/02/27 09:47:22;;;;;;;17.27;5.88;;;;;;;;;;5079142;28;20680;-52
2022/02/27 09:49:49;;;;;;;14.45;5.65;;;;;;;;;;5081345;28;20037;-53
2022/02/27 09:52:19;;;;;;;17.95;6.22;;;;;;;;;;5081260;28;20610;-53
2022/02/27 09:54:45;;;;;;;13.38;5.53;;;;;;;;;;5088872;28;20065;-50
2022/02/27 09:57:18;;;;;;;16.05;5.00;;;;;;;;;;5082044;28;20045;-50
2022/02/27 09:59:44;;;;;;;18.65;6.13;;;;;;;;;;5074602;28;20028;-50
2022/02/27 10:02:11;;;;;;;12.00;5.72;;;;;;;;;;5083897;28;20047;-50
2022/02/27 10:04:38;;;;;;;13.57;5.18;;;;;;;;;;5089316;28;20042;-51
2022/02/27 10:07:11;;;;;;;13.60;5.32;;;;;;;;;;5082996;28;20085;-52
2022/02/27 10:09:38;;;;;;;14.70;5.38;;;;;;;;;;5082093;28;20376;-49
2022/02/27 10:12:23;;;;;;;11.85;5.38;;;;;;;;;;5083132;28;20068;-50
2022/02/27 10:14:59;;;;;;;13.68;5.05;;;;;;;;;;5086130;28;20040;-52
2022/02/27 10:17:30;;;;;;;12.52;5.18;;;;;;;;;;5083140;28;20138;-52
2022/02/27 10:19:56;;;;;;;12.77;5.03;;;;;;;;;;5079477;28;20070;-49
2022/02/27 10:22:29;;;;;;;13.07;5.00;;;;;;;;;;5079992;28;20420;-49
2022/02/27 10:24:55;;;;;;;10.10;4.47;;;;;;;;;;5078798;28;20031;-51
2022/02/27 10:27:21;;;;;;;11.73;5.53;;;;;;;;;;5081586;28;20036;-49
2022/02/27 10:29:47;;;;;;;13.52;5.07;;;;;;;;;;5086924;28;20036;-51
2022/02/27 10:32:13;;;;;;;13.68;4.70;;;;;;;;;;5074166;28;20024;-52
2022/02/27 10:34:40;;;;;;;13.20;4.50;;;;;;;;;;5077040;28;20411;-54
2022/02/27 10:37:09;;;;;;;8.48;4.32;;;;;;;;;;5075251;28;20029;-53
2022/02/27 10:39:38;;;;;;;9.80;4.57;;;;;;;;;;5077434;28;20514;-53
2022/02/27 10:42:10;;;;;;;13.38;3.97;;;;;;;;;;5081977;28;20024;-52
2022/02/27 10:44:36;;;;;;;21.45;10.13;;;;;;;;;;5077470;28;20037;-53
2022/02/27 10:47:13;;;;;;;13.88;6.70;;;;;;;;;;5076330;28;20103;-54
2022/02/27 10:49:40;;;;;;;28.20;12.63;;;;;;;;;;5080636;28;20024;-52
2022/02/27 10:52:16;;;;;;;15.73;5.18;;;;;;;;;;5089648;28;20044;-53
2022/02/27 10:54:43;;;;;;;13.93;4.63;;;;;;;;;;5083259;28;20598;-48
2022/02/27 10:57:11;;;;;;;85.78;47.70;;;;;;;;;;5086829;28;20443;-50
2022/02/27 10:59:40;;;;;;;150.57;74.63;;;;;;;;;;5080422;28;20460;-50
2022/02/27 11:02:09;;;;;;;172.32;84.30;;;;;;;;;;5081503;28;20027;-51
2022/02/27 11:04:36;;;;;;;11.02;5.68;;;;;;;;;;5076357;28;20111;-52
2022/02/27 11:07:02;;;;;;;11.25;4.13;;;;;;;;;;5083521;28;20364;-51
2022/02/27 11:09:28;;;;;;;9.38;4.65;;;;;;;;;;5083566;28;20038;-55
2022/02/27 11:11:54;;;;;;;8.50;4.35;;;;;;;;;;5078926;28;20054;-49
2022/02/27 11:14:21;;;;;;;10.00;4.55;;;;;;;;;;5086163;28;20451;-49
2022/02/27 11:16:50;;;;;;;10.30;3.80;;;;;;;;;;5074026;28;20036;-51
2022/02/27 11:19:16;;;;;;;7.25;3.40;;;;;;;;;;5077975;28;20032;-55
2022/02/27 11:21:43;;;;;;;8.88;3.15;;;;;;;;;;5077959;28;20027;-49
2022/02/27 11:24:09;;;;;;;8.30;3.63;;;;;;;;;;5081275;28;20341;-51
2022/02/27 11:26:35;;;;;;;6.10;3.30;;;;;;;;;;5084600;28;20031;-52
2022/02/27 11:29:01;;;;;;;8.13;3.50;;;;;;;;;;5077483;28;20035;-48
2022/02/27 11:31:27;;;;;;;8.27;3.58;;;;;;;;;;5083047;28;20051;-50
2022/02/27 11:34:11;;;;;;;8.45;4.15;;;;;;;;;;5078020;28;20034;-52
2022/02/27 11:36:41;;;;;;;6.47;3.38;;;;;;;;;;5079516;28;20479;-52
2022/02/27 11:40:27;;;;;;;6.72;3.13;;;;;;;;;;5079541;28;20027;-53
2022/02/27 11:41:53;;;;;;;5.55;2.45;;;;;;;;;;5071380;28;20032;-52
2022/02/27 11:44:19;;;;;;;8.00;3.10;;;;;;;;;;5071192;28;20459;-53
2022/02/27 11:46:46;;;;;;;8.10;3.13;;;;;;;;;;5075611;28;20028;-51
2022/02/27 11:49:15;;;;;;;7.22;2.85;;;;;;;;;;5083412;28;20464;-51
2022/02/27 11:51:42;;;;;;;6.65;2.00;;;;;;;;;;5087328;28;20503;-51
2022/02/27 11:54:14;;;;;;;8.18;2.55;;;;;;;;;;5077970;28;20484;-54
2022/02/27 11:56:43;;;;;;;7.13;2.60;;;;;;;;;;5078563;28;20048;-54
2022/02/27 11:59:10;;;;;;;8.70;3.22;;;;;;;;;;5080603;28;20173;-49
2022/02/27 12:01:48;;;;;;;7.78;2.85;;;;;;;;;;5077389;28;20031;-50
2022/02/27 12:04:20;;;;;;;9.70;3.42;;;;;;;;;;5076797;28;20103;-49
2022/02/27 12:07:05;;;;;;;6.88;3.05;;;;;;;;;;5078775;28;20035;-48
2022/02/27 12:09:49;;;;;;;6.32;2.88;;;;;;;;;;5076707;28;20077;-51
2022/02/27 12:12:34;;;;;;;8.35;2.42;;;;;;;;;;5081510;28;20530;-51
2022/02/27 12:15:20;;;;;;;6.80;2.55;;;;;;;;;;5080317;28;20035;-53
2022/02/27 12:17:50;;;;;;;5.60;2.05;;;;;;;;;;5074399;28;20033;-52
2022/02/27 12:20:36;;;;;;;6.05;2.28;;;;;;;;;;5082087;28;20023;-50
2022/02/27 12:23:02;;;;;;;7.70;3.35;;;;;;;;;;5083642;28;20020;-53
2022/02/27 12:25:37;;;;;;;7.30;2.88;;;;;;;;;;5080532;28;20108;-51
2022/02/27 12:28:04;;;;;;;6.68;2.88;;;;;;;;;;5077861;28;20832;-51
2022/02/27 12:30:30;;;;;;;10.00;5.13;;;;;;;;;;5083299;28;20079;-50
2022/02/27 12:33:01;;;;;;;11.40;6.10;;;;;;;;;;5074932;28;20527;-53
2022/02/27 12:35:28;;;;;;;8.93;4.95;;;;;;;;;;5078923;28;20047;-51
2022/02/27 12:37:54;;;;;;;7.70;4.70;;;;;;;;;;5078716;28;20128;-48
2022/02/27 12:40:20;;;;;;;10.90;4.65;;;;;;;;;;5085885;28;20107;-48
2022/02/27 12:42:46;;;;;;;12.13;4.85;;;;;;;;;;5079494;28;20103;-50
2022/02/27 12:45:12;;;;;;;10.05;4.22;;;;;;;;;;5080064;28;20031;-52
2022/02/27 12:47:38;;;;;;;11.77;4.72;;;;;;;;;;5079864;28;20404;-48
2022/02/27 12:50:13;;;;;;;9.57;5.00;;;;;;;;;;5085946;28;20056;-51
2022/02/27 12:52:39;;;;;;;12.00;6.38;;;;;;;;;;5082401;28;20044;-50
2022/02/27 12:55:08;;;;;;;10.57;6.10;;;;;;;;;;5088649;28;20032;-48
2022/02/27 12:57:34;;;;;;;14.10;7.30;;;;;;;;;;5082660;28;20036;-49
2022/02/27 13:00:01;;;;;;;12.30;7.05;;;;;;;;;;5083526;28;20062;-49
2022/02/27 13:02:28;;;;;;;15.80;7.03;;;;;;;;;;5076802;28;20035;-52
2022/02/27 13:04:58;;;;;;;12.95;7.93;;;;;;;;;;5077008;28;20408;-48
2022/02/27 13:07:25;;;;;;;15.88;8.25;;;;;;;;;;5078558;28;20542;-53
2022/02/27 13:09:51;;;;;;;17.45;7.47;;;;;;;;;;5087307;28;20073;-50
2022/02/27 13:12:18;;;;;;;19.75;8.70;;;;;;;;;;5084724;28;20036;-50
2022/02/27 13:14:47;;;;;;;15.73;8.00;;;;;;;;;;5089479;28;20104;-50
2022/02/27 13:17:23;;;;;;;18.08;7.40;;;;;;;;;;5074439;28;20028;-53
2022/02/27 13:19:50;;;;;;;15.15;8.05;;;;;;;;;;5081902;28;20020;-48
2022/02/27 13:22:23;;;;;;;14.07;7.20;;;;;;;;;;5085549;28;20049;-47
2022/02/27 13:24:49;;;;;;;16.77;8.43;;;;;;;;;;5077796;28;20028;-47
2022/02/27 13:27:20;;;;;;;17.90;8.48;;;;;;;;;;5080568;28;20070;-47
2022/02/27 13:29:59;;;;;;;14.35;7.60;;;;;;;;;;5084135;28;20028;-48
2022/02/27 13:32:26;;;;;;;19.45;9.27;;;;;;;;;;5079917;28;20107;-49
2022/02/27 13:34:57;;;;;;;13.82;7.65;;;;;;;;;;5077319;28;20379;-51
2022/02/27 13:37:24;;;;;;;14.30;7.90;;;;;;;;;;5079234;28;20043;-53
2022/02/27 13:39:58;;;;;;;13.80;7.72;;;;;;;;;;5084470;28;20039;-48
2022/02/27 13:42:24;;;;;;;;;;;;;;;;;;5087425;28;20496;-48
2022/02/27 13:44:50;;;;;;;18.02;9.02;;;;;;;;;;5093072;28;19954;-48
2022/02/27 13:47:23;;;;;;;15.77;8.60;;;;;;;;;;5079189;28;20056;-48
2022/02/27 13:49:49;;;;;;;17.08;8.63;;;;;;;;;;5083782;28;20053;-47
2022/02/27 13:52:18;;;;;;;16.83;8.25;;;;;;;;;;5080428;28;20040;-53
2022/02/27 13:54:44;;;;;;;16.60;8.57;;;;;;;;;;5079347;28;20030;-50
2022/02/27 13:57:11;;;;;;;20.67;8.50;;;;;;;;;;5089112;28;20032;-48
2022/02/27 13:59:45;;;;;;;16.02;7.88;;;;;;;;;;5087662;28;20052;-51
2022/02/27 14:02:11;;;;;;;17.83;8.45;;;;;;;;;;5086839;28;20032;-48
2022/02/27 14:04:37;;;;;;;13.40;7.28;;;;;;;;;;5074346;28;20392;-50
2022/02/27 14:07:13;;;;;;;21.70;8.60;;;;;;;;;;5083681;28;20044;-49
2022/02/27 14:09:50;;;;;;;16.20;8.10;;;;;;;;;;5089419;28;20066;-49
2022/02/27 14:12:16;;;;;;;17.70;9.13;;;;;;;;;;5079099;28;20028;-53
2022/02/27 14:14:48;;;;;;;16.42;8.40;;;;;;;;;;5084127;28;20363;-50
2022/02/27 14:17:19;;;;;;;16.40;7.67;;;;;;;;;;5081586;28;20399;-49
2022/02/27 14:19:46;;;;;;;16.65;9.05;;;;;;;;;;5091140;28;20103;-50
2022/02/27 14:22:12;;;;;;;19.98;9.68;;;;;;;;;;5079675;28;20449;-50
2022/02/27 14:24:48;;;;;;;18.00;8.82;;;;;;;;;;5091460;28;20036;-51
2022/02/27 14:27:15;;;;;;;17.45;8.75;;;;;;;;;;5085845;28;20102;-49
2022/02/27 14:29:41;;;;;;;16.83;8.00;;;;;;;;;;5084978;28;21775;-51
2022/02/27 14:32:27;;;;;;;15.13;8.35;;;;;;;;;;5077686;28;20103;-48
2022/02/27 14:34:54;;;;;;;15.38;8.20;;;;;;;;;;5075725;28;20066;-50